Weather at Tatamagouche Airport [CLOSED]

Public forecast

Using degrees Celsius for public forecast. Weather courtesy of forecast.io.

Closest aviation weather report (METAR) to Tatamagouche Airport

Closest report is Charlottetown Airport, 34.4 nm (63.8 km) NNE.

2024/06/24 21:00 (retrieved 2 hours ago)

CYYG 242100Z 04009KT 15SM OVC007 16/14 A2959 RMK SC8 SLP024 DENSITY ALT 700FT

Closest aviation forecast (TAF) to Tatamagouche Airport

Closest forecast is Charlottetown Airport, 34.4 nm (63.8 km) NNE.

2024/06/24 18:42 (retrieved 4 hours ago)

TAF CYYG 241740Z 2418/2506 34010KT 5SM -SHRA BR OVC008 TEMPO 2418/2424 P6SM NSW OVC010 FM250000 06006KT 6SM BR OVC004 TEMPO 2500/2505 1SM -DZ -RA BR FM250500 06008KT 2SM -SHRA BR OVC003 RMK NXT FCST BY 250000Z